sensor_id;sensor_type;location;lat;lon;timestamp;pressure;altitude;pressure_sealevel;temperature;humidity
55490;BME280;44029;52.956;4.772;2023-10-08T00:01:21;102426.22;;;19.81;100.00
55490;BME280;44029;52.956;4.772;2023-10-08T00:03:47;102427.50;;;19.53;100.00
55490;BME280;44029;52.956;4.772;2023-10-08T00:06:23;102427.63;;;19.25;100.00
55490;BME280;44029;52.956;4.772;2023-10-08T00:08:49;102441.31;;;19.37;100.00
55490;BME280;44029;52.956;4.772;2023-10-08T00:11:15;102421.91;;;19.47;100.00
55490;BME280;44029;52.956;4.772;2023-10-08T00:13:42;102418.16;;;19.89;100.00
55490;BME280;44029;52.956;4.772;2023-10-08T00:16:09;102426.13;;;19.65;100.00
55490;BME280;44029;52.956;4.772;2023-10-08T00:18:35;102426.28;;;19.33;100.00
55490;BME280;44029;52.956;4.772;2023-10-08T00:21:05;102437.00;;;19.09;100.00
55490;BME280;44029;52.956;4.772;2023-10-08T00:23:33;102455.59;;;19.08;100.00
55490;BME280;44029;52.956;4.772;2023-10-08T00:26:01;102475.88;;;19.09;100.00
55490;BME280;44029;52.956;4.772;2023-10-08T00:28:29;102492.94;;;18.58;100.00
55490;BME280;44029;52.956;4.772;2023-10-08T00:30:59;102501.13;;;18.70;100.00
55490;BME280;44029;52.956;4.772;2023-10-08T00:33:40;102510.47;;;18.91;100.00
55490;BME280;44029;52.956;4.772;2023-10-08T00:36:09;102512.97;;;18.60;100.00
55490;BME280;44029;52.956;4.772;2023-10-08T00:38:45;102565.78;;;18.16;100.00
55490;BME280;44029;52.956;4.772;2023-10-08T00:41:16;102585.69;;;18.35;100.00
55490;BME280;44029;52.956;4.772;2023-10-08T00:43:42;102591.81;;;17.54;100.00
55490;BME280;44029;52.956;4.772;2023-10-08T00:46:10;102605.38;;;17.89;100.00
55490;BME280;44029;52.956;4.772;2023-10-08T00:49:02;102588.94;;;17.66;100.00
55490;BME280;44029;52.956;4.772;2023-10-08T00:51:46;102629.41;;;17.67;100.00
55490;BME280;44029;52.956;4.772;2023-10-08T00:54:13;102632.75;;;18.03;100.00
55490;BME280;44029;52.956;4.772;2023-10-08T00:56:45;102640.09;;;18.14;100.00
55490;BME280;44029;52.956;4.772;2023-10-08T00:59:26;102642.09;;;18.19;100.00
55490;BME280;44029;52.956;4.772;2023-10-08T01:01:52;102587.81;;;18.28;100.00
55490;BME280;44029;52.956;4.772;2023-10-08T01:04:24;102602.28;;;18.08;100.00
55490;BME280;44029;52.956;4.772;2023-10-08T01:06:54;102625.75;;;18.22;100.00
55490;BME280;44029;52.956;4.772;2023-10-08T01:09:22;102614.88;;;17.93;100.00
55490;BME280;44029;52.956;4.772;2023-10-08T01:12:14;102630.84;;;18.80;100.00
55490;BME280;44029;52.956;4.772;2023-10-08T01:14:52;102646.81;;;18.18;100.00
55490;BME280;44029;52.956;4.772;2023-10-08T01:17:30;102687.56;;;17.95;100.00
55490;BME280;44029;52.956;4.772;2023-10-08T01:19:58;102679.81;;;17.64;100.00
55490;BME280;44029;52.956;4.772;2023-10-08T01:22:35;102676.69;;;17.43;100.00
55490;BME280;44029;52.956;4.772;2023-10-08T01:25:04;102697.94;;;17.37;100.00
55490;BME280;44029;52.956;4.772;2023-10-08T01:27:30;102698.78;;;17.72;100.00
55490;BME280;44029;52.956;4.772;2023-10-08T01:30:00;102684.75;;;17.28;100.00
55490;BME280;44029;52.956;4.772;2023-10-08T01:32:35;102690.38;;;17.16;100.00
55490;BME280;44029;52.956;4.772;2023-10-08T01:35:01;102687.09;;;17.19;100.00
55490;BME280;44029;52.956;4.772;2023-10-08T01:37:29;102683.84;;;17.22;100.00
55490;BME280;44029;52.956;4.772;2023-10-08T01:39:59;102662.59;;;17.45;100.00
55490;BME280;44029;52.956;4.772;2023-10-08T01:42:26;102655.91;;;17.41;100.00
55490;BME280;44029;52.956;4.772;2023-10-08T01:44:53;102665.72;;;17.48;100.00
55490;BME280;44029;52.956;4.772;2023-10-08T01:47:23;102668.16;;;17.45;100.00
55490;BME280;44029;52.956;4.772;2023-10-08T01:49:51;102658.94;;;16.93;100.00
55490;BME280;44029;52.956;4.772;2023-10-08T01:52:23;102673.78;;;17.16;100.00
55490;BME280;44029;52.956;4.772;2023-10-08T01:54:49;102690.63;;;17.14;100.00
55490;BME280;44029;52.956;4.772;2023-10-08T01:57:15;102682.19;;;17.38;100.00
55490;BME280;44029;52.956;4.772;2023-10-08T01:59:42;102687.69;;;17.21;100.00
55490;BME280;44029;52.956;4.772;2023-10-08T02:02:09;102698.09;;;17.14;100.00
55490;BME280;44029;52.956;4.772;2023-10-08T02:04:35;102671.16;;;17.26;100.00
55490;BME280;44029;52.956;4.772;2023-10-08T02:07:04;102666.53;;;17.32;100.00
55490;BME280;44029;52.956;4.772;2023-10-08T02:09:33;102638.34;;;17.52;100.00
55490;BME280;44029;52.956;4.772;2023-10-08T02:11:58;102591.09;;;17.81;100.00
55490;BME280;44029;52.956;4.772;2023-10-08T02:14:24;102607.91;;;17.74;100.00
55490;BME280;44029;52.956;4.772;2023-10-08T02:16:50;102609.19;;;17.66;100.00
55490;BME280;44029;52.956;4.772;2023-10-08T02:19:24;102641.00;;;17.64;100.00
55490;BME280;44029;52.956;4.772;2023-10-08T02:21:53;102619.72;;;17.47;100.00
55490;BME280;44029;52.956;4.772;2023-10-08T02:24:20;102636.06;;;17.49;100.00
55490;BME280;44029;52.956;4.772;2023-10-08T02:26:46;102604.53;;;17.16;100.00
55490;BME280;44029;52.956;4.772;2023-10-08T02:29:12;102616.44;;;17.16;100.00
55490;BME280;44029;52.956;4.772;2023-10-08T02:31:39;102629.97;;;16.84;100.00
55490;BME280;44029;52.956;4.772;2023-10-08T02:34:07;102612.59;;;17.34;100.00
55490;BME280;44029;52.956;4.772;2023-10-08T02:36:34;102610.13;;;17.04;100.00
55490;BME280;44029;52.956;4.772;2023-10-08T02:39:02;102613.31;;;17.47;100.00
55490;BME280;44029;52.956;4.772;2023-10-08T02:41:32;102609.94;;;17.62;100.00
55490;BME280;44029;52.956;4.772;2023-10-08T02:43:57;102629.38;;;17.28;100.00
55490;BME280;44029;52.956;4.772;2023-10-08T02:46:24;102626.44;;;17.34;100.00
55490;BME280;44029;52.956;4.772;2023-10-08T02:48:52;102633.53;;;17.64;100.00
55490;BME280;44029;52.956;4.772;2023-10-08T02:51:17;102630.84;;;17.52;100.00
55490;BME280;44029;52.956;4.772;2023-10-08T02:53:45;102638.31;;;17.86;100.00
55490;BME280;44029;52.956;4.772;2023-10-08T02:56:12;102633.03;;;18.06;100.00
55490;BME280;44029;52.956;4.772;2023-10-08T02:58:42;102643.06;;;19.01;100.00
55490;BME280;44029;52.956;4.772;2023-10-08T03:01:12;102645.47;;;18.92;100.00
55490;BME280;44029;52.956;4.772;2023-10-08T03:03:41;102624.66;;;18.72;100.00
55490;BME280;44029;52.956;4.772;2023-10-08T03:06:12;102609.75;;;18.51;100.00
55490;BME280;44029;52.956;4.772;2023-10-08T03:08:40;102611.00;;;18.88;100.00
55490;BME280;44029;52.956;4.772;2023-10-08T03:11:09;102631.00;;;18.90;100.00
55490;BME280;44029;52.956;4.772;2023-10-08T03:13:45;102631.50;;;18.15;100.00
55490;BME280;44029;52.956;4.772;2023-10-08T03:16:16;102632.59;;;18.37;100.00
55490;BME280;44029;52.956;4.772;2023-10-08T03:18:46;102622.91;;;18.39;100.00
55490;BME280;44029;52.956;4.772;2023-10-08T03:21:15;102657.16;;;18.06;100.00
55490;BME280;44029;52.956;4.772;2023-10-08T03:23:48;102647.63;;;18.41;100.00
55490;BME280;44029;52.956;4.772;2023-10-08T03:26:15;102638.09;;;18.09;100.00
55490;BME280;44029;52.956;4.772;2023-10-08T03:28:56;102636.34;;;18.03;100.00
55490;BME280;44029;52.956;4.772;2023-10-08T03:31:23;102634.16;;;18.27;100.00
55490;BME280;44029;52.956;4.772;2023-10-08T03:34:08;102629.34;;;18.18;100.00
55490;BME280;44029;52.956;4.772;2023-10-08T03:36:38;102649.88;;;18.66;100.00
55490;BME280;44029;52.956;4.772;2023-10-08T03:39:15;102608.91;;;17.85;100.00
55490;BME280;44029;52.956;4.772;2023-10-08T03:41:43;102626.00;;;17.99;100.00
55490;BME280;44029;52.956;4.772;2023-10-08T03:44:17;102641.91;;;18.03;100.00
55490;BME280;44029;52.956;4.772;2023-10-08T03:46:43;102652.19;;;18.08;100.00
55490;BME280;44029;52.956;4.772;2023-10-08T03:49:12;102635.53;;;18.03;100.00
55490;BME280;44029;52.956;4.772;2023-10-08T03:51:51;102630.22;;;18.01;100.00
55490;BME280;44029;52.956;4.772;2023-10-08T03:54:22;102658.38;;;17.76;100.00
55490;BME280;44029;52.956;4.772;2023-10-08T03:57:01;102669.22;;;17.94;100.00
55490;BME280;44029;52.956;4.772;2023-10-08T03:59:29;102658.31;;;18.10;100.00
55490;BME280;44029;52.956;4.772;2023-10-08T04:02:00;102653.06;;;18.08;100.00
55490;BME280;44029;52.956;4.772;2023-10-08T04:04:46;102645.81;;;18.07;100.00
55490;BME280;44029;52.956;4.772;2023-10-08T04:07:22;102643.31;;;18.06;100.00
55490;BME280;44029;52.956;4.772;2023-10-08T04:09:58;102633.09;;;17.89;100.00
55490;BME280;44029;52.956;4.772;2023-10-08T04:12:36;102642.41;;;18.00;100.00
55490;BME280;44029;52.956;4.772;2023-10-08T04:15:09;102602.50;;;18.23;100.00
55490;BME280;44029;52.956;4.772;2023-10-08T04:17:38;102631.88;;;18.46;100.00
55490;BME280;44029;52.956;4.772;2023-10-08T04:20:09;102634.47;;;18.09;100.00
55490;BME280;44029;52.956;4.772;2023-10-08T04:22:56;102638.78;;;18.00;100.00
55490;BME280;44029;52.956;4.772;2023-10-08T04:25:21;102655.81;;;17.35;100.00
55490;BME280;44029;52.956;4.772;2023-10-08T04:27:46;102667.84;;;17.80;100.00
55490;BME280;44029;52.956;4.772;2023-10-08T04:30:15;102664.19;;;17.74;100.00
55490;BME280;44029;52.956;4.772;2023-10-08T04:32:41;102660.41;;;17.98;100.00
55490;BME280;44029;52.956;4.772;2023-10-08T04:35:07;102631.13;;;18.29;100.00
55490;BME280;44029;52.956;4.772;2023-10-08T04:37:39;102623.88;;;18.06;100.00
55490;BME280;44029;52.956;4.772;2023-10-08T04:40:06;102612.16;;;17.99;100.00
55490;BME280;44029;52.956;4.772;2023-10-08T04:42:40;102617.81;;;17.70;100.00
55490;BME280;44029;52.956;4.772;2023-10-08T04:45:06;102641.91;;;18.03;100.00
55490;BME280;44029;52.956;4.772;2023-10-08T04:47:36;102638.41;;;18.13;100.00
55490;BME280;44029;52.956;4.772;2023-10-08T04:50:05;102635.22;;;18.04;100.00
55490;BME280;44029;52.956;4.772;2023-10-08T04:52:30;102663.53;;;18.72;100.00
55490;BME280;44029;52.956;4.772;2023-10-08T04:54:59;102677.00;;;18.37;100.00
55490;BME280;44029;52.956;4.772;2023-10-08T04:57:33;102666.16;;;18.13;100.00
55490;BME280;44029;52.956;4.772;2023-10-08T04:59:59;102659.63;;;18.24;100.00
55490;BME280;44029;52.956;4.772;2023-10-08T05:02:26;102648.75;;;18.67;100.00
55490;BME280;44029;52.956;4.772;2023-10-08T05:05:14;102660.19;;;18.70;100.00
55490;BME280;44029;52.956;4.772;2023-10-08T05:07:39;102668.19;;;18.67;100.00
55490;BME280;44029;52.956;4.772;2023-10-08T05:10:11;102673.16;;;18.87;100.00
55490;BME280;44029;52.956;4.772;2023-10-08T05:12:37;102685.41;;;18.42;100.00
55490;BME280;44029;52.956;4.772;2023-10-08T05:15:06;102686.75;;;19.10;100.00
55490;BME280;44029;52.956;4.772;2023-10-08T05:17:47;102671.84;;;18.95;100.00
55490;BME280;44029;52.956;4.772;2023-10-08T05:20:16;102673.34;;;19.35;100.00
55490;BME280;44029;52.956;4.772;2023-10-08T05:22:44;102662.88;;;18.87;100.00
55490;BME280;44029;52.956;4.772;2023-10-08T05:25:10;102669.03;;;18.67;100.00
55490;BME280;44029;52.956;4.772;2023-10-08T05:27:44;102671.69;;;18.57;100.00
55490;BME280;44029;52.956;4.772;2023-10-08T05:30:19;102659.34;;;19.24;100.00
55490;BME280;44029;52.956;4.772;2023-10-08T05:33:06;102642.13;;;18.68;100.00
55490;BME280;44029;52.956;4.772;2023-10-08T05:35:41;102646.38;;;18.76;100.00
55490;BME280;44029;52.956;4.772;2023-10-08T05:38:17;102644.25;;;18.61;100.00
55490;BME280;44029;52.956;4.772;2023-10-08T05:41:03;102631.78;;;18.63;100.00
55490;BME280;44029;52.956;4.772;2023-10-08T05:43:29;102633.16;;;18.83;100.00
55490;BME280;44029;52.956;4.772;2023-10-08T05:48:57;102640.91;;;18.81;100.00
55490;BME280;44029;52.956;4.772;2023-10-08T05:51:40;102654.44;;;18.77;100.00
55490;BME280;44029;52.956;4.772;2023-10-08T05:54:12;102655.78;;;18.74;100.00
55490;BME280;44029;52.956;4.772;2023-10-08T05:57:02;102664.06;;;18.69;100.00
55490;BME280;44029;52.956;4.772;2023-10-08T05:59:38;102668.75;;;18.42;100.00
55490;BME280;44029;52.956;4.772;2023-10-08T06:02:07;102645.97;;;18.18;100.00
55490;BME280;44029;52.956;4.772;2023-10-08T06:04:51;102651.13;;;18.31;100.00
55490;BME280;44029;52.956;4.772;2023-10-08T06:07:47;102651.63;;;18.99;100.00
55490;BME280;44029;52.956;4.772;2023-10-08T06:13:05;102682.41;;;18.48;100.00
55490;BME280;44029;52.956;4.772;2023-10-08T06:18:15;102727.72;;;18.54;100.00
55490;BME280;44029;52.956;4.772;2023-10-08T06:20:42;102706.28;;;18.71;100.00
55490;BME280;44029;52.956;4.772;2023-10-08T06:23:14;102698.09;;;18.60;100.00
55490;BME280;44029;52.956;4.772;2023-10-08T06:25:49;102707.16;;;19.26;100.00
55490;BME280;44029;52.956;4.772;2023-10-08T06:28:43;102700.50;;;18.51;100.00
55490;BME280;44029;52.956;4.772;2023-10-08T06:31:11;102709.41;;;18.31;100.00
55490;BME280;44029;52.956;4.772;2023-10-08T06:33:38;102715.47;;;18.50;100.00
55490;BME280;44029;52.956;4.772;2023-10-08T06:36:05;102713.13;;;18.20;100.00
55490;BME280;44029;52.956;4.772;2023-10-08T06:38:45;102695.88;;;18.62;100.00
55490;BME280;44029;52.956;4.772;2023-10-08T06:41:15;102685.72;;;18.23;100.00
55490;BME280;44029;52.956;4.772;2023-10-08T06:43:44;102673.75;;;18.89;100.00
55490;BME280;44029;52.956;4.772;2023-10-08T06:46:16;102655.69;;;18.64;100.00
55490;BME280;44029;52.956;4.772;2023-10-08T06:48:44;102664.09;;;18.25;100.00
55490;BME280;44029;52.956;4.772;2023-10-08T06:51:11;102644.84;;;18.41;100.00
55490;BME280;44029;52.956;4.772;2023-10-08T06:53:44;102649.66;;;18.23;100.00
55490;BME280;44029;52.956;4.772;2023-10-08T06:56:16;102652.69;;;18.22;100.00
55490;BME280;44029;52.956;4.772;2023-10-08T06:58:42;102663.13;;;18.59;100.00
55490;BME280;44029;52.956;4.772;2023-10-08T07:01:13;102691.63;;;18.32;100.00
55490;BME280;44029;52.956;4.772;2023-10-08T07:03:49;102704.09;;;18.29;100.00
55490;BME280;44029;52.956;4.772;2023-10-08T07:06:16;102717.19;;;18.56;100.00
55490;BME280;44029;52.956;4.772;2023-10-08T07:08:57;102725.19;;;18.74;100.00
55490;BME280;44029;52.956;4.772;2023-10-08T07:11:25;102725.78;;;18.77;100.00
55490;BME280;44029;52.956;4.772;2023-10-08T07:13:52;102733.03;;;19.27;100.00
55490;BME280;44029;52.956;4.772;2023-10-08T07:16:18;102732.13;;;19.21;100.00
55490;BME280;44029;52.956;4.772;2023-10-08T07:18:44;102736.44;;;19.07;100.00
55490;BME280;44029;52.956;4.772;2023-10-08T07:21:17;102748.38;;;19.62;100.00
55490;BME280;44029;52.956;4.772;2023-10-08T07:23:42;102744.59;;;19.19;100.00
55490;BME280;44029;52.956;4.772;2023-10-08T07:26:28;102735.13;;;19.47;100.00
55490;BME280;44029;52.956;4.772;2023-10-08T07:29:06;102730.97;;;19.44;100.00
55490;BME280;44029;52.956;4.772;2023-10-08T07:31:35;102746.56;;;18.52;100.00
55490;BME280;44029;52.956;4.772;2023-10-08T07:34:02;102741.53;;;18.49;100.00
55490;BME280;44029;52.956;4.772;2023-10-08T07:36:47;102759.56;;;18.68;100.00
55490;BME280;44029;52.956;4.772;2023-10-08T07:39:17;102748.28;;;18.14;100.00
55490;BME280;44029;52.956;4.772;2023-10-08T07:42:05;102758.31;;;18.59;100.00
55490;BME280;44029;52.956;4.772;2023-10-08T07:44:31;102770.81;;;19.01;100.00
55490;BME280;44029;52.956;4.772;2023-10-08T07:46:57;102765.75;;;18.76;100.00
55490;BME280;44029;52.956;4.772;2023-10-08T07:49:26;102758.09;;;18.83;100.00
55490;BME280;44029;52.956;4.772;2023-10-08T07:51:56;102749.09;;;18.76;100.00
55490;BME280;44029;52.956;4.772;2023-10-08T07:54:23;102753.84;;;18.58;100.00
55490;BME280;44029;52.956;4.772;2023-10-08T07:56:55;102751.09;;;18.58;100.00
55490;BME280;44029;52.956;4.772;2023-10-08T07:59:42;102748.28;;;18.97;100.00
55490;BME280;44029;52.956;4.772;2023-10-08T08:02:12;102739.78;;;19.09;100.00
55490;BME280;44029;52.956;4.772;2023-10-08T08:04:41;102735.72;;;18.95;100.00
55490;BME280;44029;52.956;4.772;2023-10-08T08:07:11;102731.06;;;18.34;100.00
55490;BME280;44029;52.956;4.772;2023-10-08T08:09:43;102717.53;;;18.82;100.00
55490;BME280;44029;52.956;4.772;2023-10-08T08:12:15;102722.31;;;18.64;100.00
55490;BME280;44029;52.956;4.772;2023-10-08T08:14:41;102719.94;;;18.73;100.00
55490;BME280;44029;52.956;4.772;2023-10-08T08:17:07;102719.78;;;18.63;100.00
55490;BME280;44029;52.956;4.772;2023-10-08T08:19:42;102724.44;;;19.01;100.00
55490;BME280;44029;52.956;4.772;2023-10-08T08:22:09;102730.72;;;18.47;100.00
55490;BME280;44029;52.956;4.772;2023-10-08T08:24:40;102739.41;;;19.00;100.00
55490;BME280;44029;52.956;4.772;2023-10-08T08:27:10;102743.91;;;17.84;100.00
55490;BME280;44029;52.956;4.772;2023-10-08T08:29:54;102735.41;;;18.69;100.00
55490;BME280;44029;52.956;4.772;2023-10-08T08:32:26;102727.66;;;18.93;100.00
55490;BME280;44029;52.956;4.772;2023-10-08T08:34:53;102728.50;;;18.71;100.00
55490;BME280;44029;52.956;4.772;2023-10-08T08:37:19;102739.06;;;18.91;100.00
55490;BME280;44029;52.956;4.772;2023-10-08T08:39:48;102754.44;;;19.59;100.00
55490;BME280;44029;52.956;4.772;2023-10-08T08:42:14;102747.75;;;19.55;100.00
55490;BME280;44029;52.956;4.772;2023-10-08T08:44:43;102766.25;;;19.44;100.00
55490;BME280;44029;52.956;4.772;2023-10-08T08:47:14;102764.09;;;19.51;100.00
55490;BME280;44029;52.956;4.772;2023-10-08T08:49:44;102776.44;;;18.84;100.00
55490;BME280;44029;52.956;4.772;2023-10-08T08:52:13;102781.75;;;18.46;100.00
55490;BME280;44029;52.956;4.772;2023-10-08T08:54:40;102755.81;;;18.80;100.00
55490;BME280;44029;52.956;4.772;2023-10-08T08:57:07;102755.28;;;19.32;100.00
55490;BME280;44029;52.956;4.772;2023-10-08T08:59:42;102750.75;;;19.80;100.00
55490;BME280;44029;52.956;4.772;2023-10-08T09:02:11;102754.34;;;20.18;100.00
55490;BME280;44029;52.956;4.772;2023-10-08T09:04:39;102747.28;;;19.68;100.00
55490;BME280;44029;52.956;4.772;2023-10-08T09:07:04;102750.88;;;19.96;100.00
55490;BME280;44029;52.956;4.772;2023-10-08T09:09:34;102757.47;;;20.27;100.00
55490;BME280;44029;52.956;4.772;2023-10-08T09:12:05;102747.81;;;19.97;100.00
55490;BME280;44029;52.956;4.772;2023-10-08T09:14:31;102753.13;;;20.04;100.00
55490;BME280;44029;52.956;4.772;2023-10-08T09:17:00;102765.00;;;19.89;100.00
55490;BME280;44029;52.956;4.772;2023-10-08T09:19:26;102765.91;;;20.00;100.00
55490;BME280;44029;52.956;4.772;2023-10-08T09:24:35;102782.94;;;20.51;100.00
55490;BME280;44029;52.956;4.772;2023-10-08T09:27:08;102784.31;;;20.01;100.00
55490;BME280;44029;52.956;4.772;2023-10-08T09:29:34;102787.84;;;20.34;100.00
55490;BME280;44029;52.956;4.772;2023-10-08T09:32:10;102785.09;;;20.39;100.00
55490;BME280;44029;52.956;4.772;2023-10-08T09:34:35;102795.94;;;20.35;100.00
55490;BME280;44029;52.956;4.772;2023-10-08T09:37:01;102790.28;;;20.20;100.00
55490;BME280;44029;52.956;4.772;2023-10-08T09:39:29;102790.13;;;20.42;100.00
55490;BME280;44029;52.956;4.772;2023-10-08T09:42:01;102786.75;;;20.88;100.00
55490;BME280;44029;52.956;4.772;2023-10-08T09:44:28;102788.56;;;20.56;100.00
55490;BME280;44029;52.956;4.772;2023-10-08T09:47:07;102783.13;;;19.97;100.00
55490;BME280;44029;52.956;4.772;2023-10-08T09:49:39;102775.81;;;20.71;100.00
55490;BME280;44029;52.956;4.772;2023-10-08T09:52:07;102774.69;;;20.66;100.00
55490;BME280;44029;52.956;4.772;2023-10-08T09:54:44;102786.22;;;20.96;100.00
55490;BME280;44029;52.956;4.772;2023-10-08T09:57:14;102780.72;;;20.53;100.00
55490;BME280;44029;52.956;4.772;2023-10-08T09:59:44;102782.38;;;21.12;100.00
55490;BME280;44029;52.956;4.772;2023-10-08T10:02:11;102778.16;;;20.99;100.00
55490;BME280;44029;52.956;4.772;2023-10-08T10:04:42;102801.06;;;21.17;100.00
55490;BME280;44029;52.956;4.772;2023-10-08T10:07:12;102806.09;;;21.20;100.00
55490;BME280;44029;52.956;4.772;2023-10-08T10:09:39;102818.28;;;20.98;100.00
55490;BME280;44029;52.956;4.772;2023-10-08T10:12:07;102811.56;;;20.94;100.00
55490;BME280;44029;52.956;4.772;2023-10-08T10:14:47;102813.91;;;21.28;100.00
55490;BME280;44029;52.956;4.772;2023-10-08T10:17:15;102799.34;;;21.05;100.00
55490;BME280;44029;52.956;4.772;2023-10-08T10:19:44;102804.56;;;20.39;100.00
55490;BME280;44029;52.956;4.772;2023-10-08T10:22:14;102810.88;;;20.66;100.00
55490;BME280;44029;52.956;4.772;2023-10-08T10:24:42;102788.47;;;20.03;100.00
55490;BME280;44029;52.956;4.772;2023-10-08T10:27:12;102788.97;;;20.80;100.00
55490;BME280;44029;52.956;4.772;2023-10-08T10:29:39;102775.66;;;20.45;100.00
55490;BME280;44029;52.956;4.772;2023-10-08T10:32:10;102762.88;;;20.49;100.00
55490;BME280;44029;52.956;4.772;2023-10-08T10:34:38;102773.91;;;20.34;100.00
55490;BME280;44029;52.956;4.772;2023-10-08T10:37:04;102763.84;;;20.22;100.00
55490;BME280;44029;52.956;4.772;2023-10-08T10:39:59;102737.84;;;20.49;100.00
55490;BME280;44029;52.956;4.772;2023-10-08T10:42:26;102735.81;;;20.39;100.00
55490;BME280;44029;52.956;4.772;2023-10-08T10:44:54;102745.78;;;20.83;100.00
55490;BME280;44029;52.956;4.772;2023-10-08T10:47:21;102748.41;;;20.52;100.00
55490;BME280;44029;52.956;4.772;2023-10-08T10:49:48;102742.97;;;20.68;100.00
55490;BME280;44029;52.956;4.772;2023-10-08T10:52:17;102742.41;;;20.18;100.00
55490;BME280;44029;52.956;4.772;2023-10-08T10:55:04;102751.41;;;20.98;100.00
55490;BME280;44029;52.956;4.772;2023-10-08T10:57:55;102760.84;;;20.87;100.00
55490;BME280;44029;52.956;4.772;2023-10-08T11:00:25;102746.19;;;20.54;100.00
55490;BME280;44029;52.956;4.772;2023-10-08T11:02:58;102737.78;;;20.39;100.00
55490;BME280;44029;52.956;4.772;2023-10-08T11:05:32;102738.53;;;20.82;100.00
55490;BME280;44029;52.956;4.772;2023-10-08T11:08:03;102730.44;;;20.70;100.00
55490;BME280;44029;52.956;4.772;2023-10-08T11:10:33;102736.94;;;21.12;100.00
55490;BME280;44029;52.956;4.772;2023-10-08T11:12:59;102732.50;;;21.26;100.00
55490;BME280;44029;52.956;4.772;2023-10-08T11:15:28;102728.81;;;20.95;100.00
55490;BME280;44029;52.956;4.772;2023-10-08T11:18:09;102737.50;;;21.19;100.00
55490;BME280;44029;52.956;4.772;2023-10-08T11:20:35;102719.59;;;20.79;100.00
55490;BME280;44029;52.956;4.772;2023-10-08T11:23:31;102727.47;;;21.02;100.00
55490;BME280;44029;52.956;4.772;2023-10-08T11:25:59;102736.94;;;21.07;100.00
55490;BME280;44029;52.956;4.772;2023-10-08T11:28:47;102733.09;;;21.43;100.00
55490;BME280;44029;52.956;4.772;2023-10-08T11:31:14;102722.25;;;21.47;100.00
55490;BME280;44029;52.956;4.772;2023-10-08T11:33:45;102722.41;;;20.94;100.00
55490;BME280;44029;52.956;4.772;2023-10-08T11:36:20;102722.19;;;21.21;100.00
55490;BME280;44029;52.956;4.772;2023-10-08T11:38:50;102718.03;;;21.34;100.00
55490;BME280;44029;52.956;4.772;2023-10-08T11:41:19;102711.88;;;21.42;100.00
55490;BME280;44029;52.956;4.772;2023-10-08T11:46:13;102697.63;;;20.93;100.00
55490;BME280;44029;52.956;4.772;2023-10-08T11:48:43;102690.66;;;21.05;100.00
55490;BME280;44029;52.956;4.772;2023-10-08T11:51:12;102684.25;;;20.26;100.00
55490;BME280;44029;52.956;4.772;2023-10-08T11:53:38;102679.91;;;20.46;100.00
55490;BME280;44029;52.956;4.772;2023-10-08T11:56:03;102674.50;;;20.92;100.00
55490;BME280;44029;52.956;4.772;2023-10-08T11:58:38;102682.59;;;21.24;100.00
55490;BME280;44029;52.956;4.772;2023-10-08T12:01:04;102675.59;;;20.91;100.00
55490;BME280;44029;52.956;4.772;2023-10-08T12:03:29;102681.47;;;21.15;100.00
55490;BME280;44029;52.956;4.772;2023-10-08T12:05:55;102673.44;;;21.45;100.00
55490;BME280;44029;52.956;4.772;2023-10-08T12:08:24;102680.34;;;21.06;100.00
55490;BME280;44029;52.956;4.772;2023-10-08T12:10:53;102679.47;;;20.80;100.00
55490;BME280;44029;52.956;4.772;2023-10-08T12:13:20;102681.50;;;21.20;100.00
55490;BME280;44029;52.956;4.772;2023-10-08T12:15:56;102672.00;;;21.32;100.00
55490;BME280;44029;52.956;4.772;2023-10-08T12:18:32;102668.09;;;20.92;100.00
55490;BME280;44029;52.956;4.772;2023-10-08T12:21:04;102669.72;;;20.88;100.00
55490;BME280;44029;52.956;4.772;2023-10-08T12:23:30;102664.72;;;20.84;100.00
55490;BME280;44029;52.956;4.772;2023-10-08T12:25:58;102672.56;;;21.18;100.00
55490;BME280;44029;52.956;4.772;2023-10-08T12:28:25;102672.28;;;21.30;100.00
55490;BME280;44029;52.956;4.772;2023-10-08T12:30:53;102668.41;;;21.47;100.00
55490;BME280;44029;52.956;4.772;2023-10-08T12:33:19;102685.72;;;21.69;100.00
55490;BME280;44029;52.956;4.772;2023-10-08T12:35:46;102685.94;;;21.32;100.00
55490;BME280;44029;52.956;4.772;2023-10-08T12:38:12;102680.66;;;21.04;100.00
55490;BME280;44029;52.956;4.772;2023-10-08T12:40:42;102681.75;;;20.93;100.00
55490;BME280;44029;52.956;4.772;2023-10-08T12:43:16;102685.38;;;21.09;100.00
55490;BME280;44029;52.956;4.772;2023-10-08T12:45:45;102680.63;;;21.10;100.00
55490;BME280;44029;52.956;4.772;2023-10-08T12:48:18;102673.41;;;21.24;100.00
55490;BME280;44029;52.956;4.772;2023-10-08T12:50:43;102683.97;;;21.01;100.00
55490;BME280;44029;52.956;4.772;2023-10-08T12:53:11;102677.88;;;21.04;100.00
55490;BME280;44029;52.956;4.772;2023-10-08T12:55:40;102676.47;;;21.22;100.00
55490;BME280;44029;52.956;4.772;2023-10-08T12:58:06;102665.88;;;21.04;100.00
55490;BME280;44029;52.956;4.772;2023-10-08T13:00:37;102662.81;;;21.67;100.00
55490;BME280;44029;52.956;4.772;2023-10-08T13:03:03;102644.97;;;21.37;100.00
55490;BME280;44029;52.956;4.772;2023-10-08T13:05:31;102642.22;;;21.48;100.00
55490;BME280;44029;52.956;4.772;2023-10-08T13:07:59;102647.75;;;21.37;100.00
55490;BME280;44029;52.956;4.772;2023-10-08T13:10:35;102640.53;;;21.36;100.00
55490;BME280;44029;52.956;4.772;2023-10-08T13:13:00;102640.78;;;21.30;100.00